sensor_id;sensor_type;location;lat;lon;timestamp;temperature;humidity
70826;SHT31;58446;41.490;22.098;2023-08-21T00:01:03;28.00;47.33
70826;SHT31;58446;41.490;22.098;2023-08-21T00:03:29;27.88;47.43
70826;SHT31;58446;41.490;22.098;2023-08-21T00:05:55;27.49;48.09
70826;SHT31;58446;41.490;22.098;2023-08-21T00:08:21;27.37;48.30
70826;SHT31;58446;41.490;22.098;2023-08-21T00:10:46;27.42;48.22
70826;SHT31;58446;41.490;22.098;2023-08-21T00:13:13;27.47;48.14
70826;SHT31;58446;41.490;22.098;2023-08-21T00:15:39;27.61;48.30
70826;SHT31;58446;41.490;22.098;2023-08-21T00:18:05;27.05;49.68
70826;SHT31;58446;41.490;22.098;2023-08-21T00:20:31;27.30;49.20
70826;SHT31;58446;41.490;22.098;2023-08-21T00:22:57;27.47;48.61
70826;SHT31;58446;41.490;22.098;2023-08-21T00:25:22;27.51;48.80
70826;SHT31;58446;41.490;22.098;2023-08-21T00:27:48;27.60;48.37
70826;SHT31;58446;41.490;22.098;2023-08-21T00:30:14;27.74;48.20
70826;SHT31;58446;41.490;22.098;2023-08-21T00:32:41;27.94;47.75
70826;SHT31;58446;41.490;22.098;2023-08-21T00:35:07;27.81;48.71
70826;SHT31;58446;41.490;22.098;2023-08-21T00:37:33;27.61;48.74
70826;SHT31;58446;41.490;22.098;2023-08-21T00:39:58;27.40;49.73
70826;SHT31;58446;41.490;22.098;2023-08-21T00:42:24;27.09;50.23
70826;SHT31;58446;41.490;22.098;2023-08-21T00:44:49;27.28;49.63
70826;SHT31;58446;41.490;22.098;2023-08-21T00:47:15;26.81;51.76
70826;SHT31;58446;41.490;22.098;2023-08-21T00:49:42;26.82;51.60
70826;SHT31;58446;41.490;22.098;2023-08-21T00:52:08;27.02;50.54
70826;SHT31;58446;41.490;22.098;2023-08-21T00:54:36;27.28;50.10
70826;SHT31;58446;41.490;22.098;2023-08-21T00:57:02;27.42;49.60
70826;SHT31;58446;41.490;22.098;2023-08-21T00:59:28;27.56;49.38
70826;SHT31;58446;41.490;22.098;2023-08-21T01:01:54;27.54;49.51
70826;SHT31;58446;41.490;22.098;2023-08-21T01:04:20;27.32;50.19
70826;SHT31;58446;41.490;22.098;2023-08-21T01:06:48;26.89;51.49
70826;SHT31;58446;41.490;22.098;2023-08-21T01:09:56;27.06;50.59
70826;SHT31;58446;41.490;22.098;2023-08-21T01:12:39;27.19;50.18
70826;SHT31;58446;41.490;22.098;2023-08-21T01:15:07;27.23;50.26
70826;SHT31;58446;41.490;22.098;2023-08-21T01:17:36;27.20;50.17
70826;SHT31;58446;41.490;22.098;2023-08-21T01:20:03;27.49;49.50
70826;SHT31;58446;41.490;22.098;2023-08-21T01:22:37;27.45;49.40
70826;SHT31;58446;41.490;22.098;2023-08-21T01:25:07;27.18;49.92
70826;SHT31;58446;41.490;22.098;2023-08-21T01:27:34;26.88;50.72
70826;SHT31;58446;41.490;22.098;2023-08-21T01:30:01;26.88;50.59
70826;SHT31;58446;41.490;22.098;2023-08-21T01:32:57;27.03;50.31
70826;SHT31;58446;41.490;22.098;2023-08-21T01:35:24;27.25;49.85
70826;SHT31;58446;41.490;22.098;2023-08-21T01:37:51;27.06;50.31
70826;SHT31;58446;41.490;22.098;2023-08-21T01:40:23;27.25;49.85
70826;SHT31;58446;41.490;22.098;2023-08-21T01:42:49;27.10;50.21
70826;SHT31;58446;41.490;22.098;2023-08-21T01:45:15;27.08;50.37
70826;SHT31;58446;41.490;22.098;2023-08-21T01:47:41;27.05;50.34
70826;SHT31;58446;41.490;22.098;2023-08-21T01:50:09;27.02;50.44
70826;SHT31;58446;41.490;22.098;2023-08-21T01:52:34;27.02;50.22
70826;SHT31;58446;41.490;22.098;2023-08-21T01:55:00;26.85;50.79
70826;SHT31;58446;41.490;22.098;2023-08-21T01:57:26;26.84;50.70
70826;SHT31;58446;41.490;22.098;2023-08-21T01:59:52;26.82;50.73
70826;SHT31;58446;41.490;22.098;2023-08-21T02:02:17;26.89;50.26
70826;SHT31;58446;41.490;22.098;2023-08-21T02:04:43;26.69;50.91
70826;SHT31;58446;41.490;22.098;2023-08-21T02:07:09;26.75;50.72
70826;SHT31;58446;41.490;22.098;2023-08-21T02:09:34;26.65;50.82
70826;SHT31;58446;41.490;22.098;2023-08-21T02:12:00;26.82;50.43
70826;SHT31;58446;41.490;22.098;2023-08-21T02:14:26;26.88;50.22
70826;SHT31;58446;41.490;22.098;2023-08-21T02:16:51;26.82;50.39
70826;SHT31;58446;41.490;22.098;2023-08-21T02:19:17;26.72;50.75
70826;SHT31;58446;41.490;22.098;2023-08-21T02:21:43;26.51;51.19
70826;SHT31;58446;41.490;22.098;2023-08-21T02:24:08;26.43;51.48
70826;SHT31;58446;41.490;22.098;2023-08-21T02:26:34;26.37;51.43
70826;SHT31;58446;41.490;22.098;2023-08-21T02:29:00;26.40;51.52
70826;SHT31;58446;41.490;22.098;2023-08-21T02:31:26;26.47;51.31
70826;SHT31;58446;41.490;22.098;2023-08-21T02:33:51;26.68;50.75
70826;SHT31;58446;41.490;22.098;2023-08-21T02:36:17;26.48;51.35
70826;SHT31;58446;41.490;22.098;2023-08-21T02:38:42;26.31;51.74
70826;SHT31;58446;41.490;22.098;2023-08-21T02:41:08;26.30;51.76
70826;SHT31;58446;41.490;22.098;2023-08-21T02:43:34;26.55;51.13
70826;SHT31;58446;41.490;22.098;2023-08-21T02:46:00;26.38;51.48
70826;SHT31;58446;41.490;22.098;2023-08-21T02:48:25;26.40;51.35
70826;SHT31;58446;41.490;22.098;2023-08-21T02:50:51;26.18;51.75
70826;SHT31;58446;41.490;22.098;2023-08-21T02:53:17;26.16;51.61
70826;SHT31;58446;41.490;22.098;2023-08-21T02:55:43;26.10;51.90
70826;SHT31;58446;41.490;22.098;2023-08-21T02:58:08;26.28;51.32
70826;SHT31;58446;41.490;22.098;2023-08-21T03:00:35;26.23;51.35
70826;SHT31;58446;41.490;22.098;2023-08-21T03:03:01;26.38;50.93
70826;SHT31;58446;41.490;22.098;2023-08-21T03:05:26;26.27;51.46
70826;SHT31;58446;41.490;22.098;2023-08-21T03:07:52;26.13;51.40
70826;SHT31;58446;41.490;22.098;2023-08-21T03:10:18;26.13;51.75
70826;SHT31;58446;41.490;22.098;2023-08-21T03:12:44;25.80;52.54
70826;SHT31;58446;41.490;22.098;2023-08-21T03:15:10;26.00;52.07
70826;SHT31;58446;41.490;22.098;2023-08-21T03:17:35;26.07;51.95
70826;SHT31;58446;41.490;22.098;2023-08-21T03:20:02;25.66;52.34
70826;SHT31;58446;41.490;22.098;2023-08-21T03:22:30;25.70;52.63
70826;SHT31;58446;41.490;22.098;2023-08-21T03:24:57;25.08;54.06
70826;SHT31;58446;41.490;22.098;2023-08-21T03:27:24;25.45;53.11
70826;SHT31;58446;41.490;22.098;2023-08-21T03:29:50;25.04;54.11
70826;SHT31;58446;41.490;22.098;2023-08-21T03:32:18;25.01;54.23
70826;SHT31;58446;41.490;22.098;2023-08-21T03:34:44;25.32;53.58
70826;SHT31;58446;41.490;22.098;2023-08-21T03:37:10;25.55;53.17
70826;SHT31;58446;41.490;22.098;2023-08-21T03:39:36;25.72;52.70
70826;SHT31;58446;41.490;22.098;2023-08-21T03:42:02;25.79;53.01
70826;SHT31;58446;41.490;22.098;2023-08-21T03:44:27;25.70;52.87
70826;SHT31;58446;41.490;22.098;2023-08-21T03:46:53;25.68;52.99
70826;SHT31;58446;41.490;22.098;2023-08-21T03:49:19;25.50;54.26
70826;SHT31;58446;41.490;22.098;2023-08-21T03:51:44;25.48;54.81
70826;SHT31;58446;41.490;22.098;2023-08-21T03:54:10;25.72;53.46
70826;SHT31;58446;41.490;22.098;2023-08-21T03:56:36;25.52;53.84
70826;SHT31;58446;41.490;22.098;2023-08-21T03:59:02;24.91;55.24
70826;SHT31;58446;41.490;22.098;2023-08-21T04:01:28;25.17;54.83
70826;SHT31;58446;41.490;22.098;2023-08-21T04:03:54;25.35;54.51
70826;SHT31;58446;41.490;22.098;2023-08-21T04:06:19;25.43;54.09
70826;SHT31;58446;41.490;22.098;2023-08-21T04:08:45;25.62;53.86
70826;SHT31;58446;41.490;22.098;2023-08-21T04:11:11;25.62;54.12
70826;SHT31;58446;41.490;22.098;2023-08-21T04:13:36;25.35;54.37
70826;SHT31;58446;41.490;22.098;2023-08-21T04:16:02;25.46;53.90
70826;SHT31;58446;41.490;22.098;2023-08-21T04:18:28;26.00;52.89
70826;SHT31;58446;41.490;22.098;2023-08-21T04:20:54;26.37;51.89
70826;SHT31;58446;41.490;22.098;2023-08-21T04:23:19;26.65;51.16
70826;SHT31;58446;41.490;22.098;2023-08-21T04:25:45;27.10;50.15
70826;SHT31;58446;41.490;22.098;2023-08-21T04:28:11;27.40;49.36
70826;SHT31;58446;41.490;22.098;2023-08-21T04:30:36;27.47;49.16
70826;SHT31;58446;41.490;22.098;2023-08-21T04:33:02;27.80;48.53
70826;SHT31;58446;41.490;22.098;2023-08-21T04:35:28;27.91;48.15
70826;SHT31;58446;41.490;22.098;2023-08-21T04:37:54;27.93;48.46
70826;SHT31;58446;41.490;22.098;2023-08-21T04:40:19;27.68;48.70
70826;SHT31;58446;41.490;22.098;2023-08-21T04:42:46;27.59;49.21
70826;SHT31;58446;41.490;22.098;2023-08-21T04:45:13;27.63;48.94
70826;SHT31;58446;41.490;22.098;2023-08-21T04:47:39;27.53;49.92
70826;SHT31;58446;41.490;22.098;2023-08-21T04:50:05;27.33;49.91
70826;SHT31;58446;41.490;22.098;2023-08-21T04:52:30;27.54;49.29
70826;SHT31;58446;41.490;22.098;2023-08-21T04:54:56;27.42;50.04
70826;SHT31;58446;41.490;22.098;2023-08-21T04:57:22;26.98;50.73
70826;SHT31;58446;41.490;22.098;2023-08-21T04:59:48;26.92;51.30
70826;SHT31;58446;41.490;22.098;2023-08-21T05:02:14;26.99;51.17
70826;SHT31;58446;41.490;22.098;2023-08-21T05:04:40;26.85;51.49
70826;SHT31;58446;41.490;22.098;2023-08-21T05:07:06;26.89;51.59
70826;SHT31;58446;41.490;22.098;2023-08-21T05:09:32;26.98;51.24
70826;SHT31;58446;41.490;22.098;2023-08-21T05:11:58;27.13;50.56
70826;SHT31;58446;41.490;22.098;2023-08-21T05:14:24;27.26;51.66
70826;SHT31;58446;41.490;22.098;2023-08-21T05:16:50;27.45;51.22
70826;SHT31;58446;41.490;22.098;2023-08-21T05:19:16;27.42;51.22
70826;SHT31;58446;41.490;22.098;2023-08-21T05:21:43;27.42;50.43
70826;SHT31;58446;41.490;22.098;2023-08-21T05:24:08;27.57;51.13
70826;SHT31;58446;41.490;22.098;2023-08-21T05:26:37;27.87;50.52
70826;SHT31;58446;41.490;22.098;2023-08-21T05:29:03;27.93;50.38
70826;SHT31;58446;41.490;22.098;2023-08-21T05:31:29;28.11;49.60
70826;SHT31;58446;41.490;22.098;2023-08-21T05:33:55;28.28;49.87
70826;SHT31;58446;41.490;22.098;2023-08-21T05:36:21;28.37;49.72
70826;SHT31;58446;41.490;22.098;2023-08-21T05:38:46;28.53;49.01
70826;SHT31;58446;41.490;22.098;2023-08-21T05:41:14;28.60;48.75
70826;SHT31;58446;41.490;22.098;2023-08-21T05:43:39;28.76;48.49
70826;SHT31;58446;41.490;22.098;2023-08-21T05:46:07;28.76;48.13
70826;SHT31;58446;41.490;22.098;2023-08-21T05:48:33;28.89;46.84
70826;SHT31;58446;41.490;22.098;2023-08-21T05:50:59;28.97;46.51
70826;SHT31;58446;41.490;22.098;2023-08-21T05:53:25;29.14;46.00
70826;SHT31;58446;41.490;22.098;2023-08-21T05:55:51;29.41;45.57
70826;SHT31;58446;41.490;22.098;2023-08-21T05:58:17;29.64;45.12
70826;SHT31;58446;41.490;22.098;2023-08-21T06:00:43;29.79;44.94
70826;SHT31;58446;41.490;22.098;2023-08-21T06:03:09;29.93;45.08
70826;SHT31;58446;41.490;22.098;2023-08-21T06:05:35;30.18;44.51
70826;SHT31;58446;41.490;22.098;2023-08-21T06:08:01;30.32;44.85
70826;SHT31;58446;41.490;22.098;2023-08-21T06:10:27;30.27;45.37
70826;SHT31;58446;41.490;22.098;2023-08-21T06:12:52;30.55;44.27
70826;SHT31;58446;41.490;22.098;2023-08-21T06:15:18;30.52;44.73
70826;SHT31;58446;41.490;22.098;2023-08-21T06:17:44;30.60;44.75
70826;SHT31;58446;41.490;22.098;2023-08-21T06:20:10;30.59;45.49
70826;SHT31;58446;41.490;22.098;2023-08-21T06:22:39;30.73;45.65
70826;SHT31;58446;41.490;22.098;2023-08-21T06:25:05;30.53;44.09
70826;SHT31;58446;41.490;22.098;2023-08-21T06:27:31;30.64;45.59
70826;SHT31;58446;41.490;22.098;2023-08-21T06:29:57;30.66;45.02
70826;SHT31;58446;41.490;22.098;2023-08-21T06:32:22;30.84;45.36
70826;SHT31;58446;41.490;22.098;2023-08-21T06:34:48;30.98;45.57
70826;SHT31;58446;41.490;22.098;2023-08-21T06:37:14;31.29;44.80
70826;SHT31;58446;41.490;22.098;2023-08-21T06:39:39;31.41;44.48
70826;SHT31;58446;41.490;22.098;2023-08-21T06:42:05;31.59;44.03
70826;SHT31;58446;41.490;22.098;2023-08-21T06:44:31;31.69;43.69
70826;SHT31;58446;41.490;22.098;2023-08-21T06:46:57;31.50;43.64
70826;SHT31;58446;41.490;22.098;2023-08-21T06:49:22;31.31;44.63
70826;SHT31;58446;41.490;22.098;2023-08-21T06:51:49;31.53;44.11
70826;SHT31;58446;41.490;22.098;2023-08-21T06:54:15;31.85;44.62
70826;SHT31;58446;41.490;22.098;2023-08-21T06:56:41;32.10;43.63
70826;SHT31;58446;41.490;22.098;2023-08-21T06:59:07;32.33;42.60
70826;SHT31;58446;41.490;22.098;2023-08-21T07:01:32;32.37;43.02
70826;SHT31;58446;41.490;22.098;2023-08-21T07:03:58;32.30;40.69
70826;SHT31;58446;41.490;22.098;2023-08-21T07:06:27;32.40;41.54
70826;SHT31;58446;41.490;22.098;2023-08-21T07:08:53;32.51;42.98
70826;SHT31;58446;41.490;22.098;2023-08-21T07:11:18;32.67;41.42
70826;SHT31;58446;41.490;22.098;2023-08-21T07:13:44;32.65;40.28
70826;SHT31;58446;41.490;22.098;2023-08-21T07:16:10;32.54;41.31
70826;SHT31;58446;41.490;22.098;2023-08-21T07:18:36;32.77;41.62
70826;SHT31;58446;41.490;22.098;2023-08-21T07:21:02;32.81;42.87
70826;SHT31;58446;41.490;22.098;2023-08-21T07:23:30;32.81;40.42
70826;SHT31;58446;41.490;22.098;2023-08-21T07:25:57;32.60;40.01
70826;SHT31;58446;41.490;22.098;2023-08-21T07:28:29;32.43;40.39
70826;SHT31;58446;41.490;22.098;2023-08-21T07:30:56;32.33;41.14
70826;SHT31;58446;41.490;22.098;2023-08-21T07:33:22;32.47;40.45
70826;SHT31;58446;41.490;22.098;2023-08-21T07:36:00;32.82;41.86
70826;SHT31;58446;41.490;22.098;2023-08-21T07:38:26;32.99;40.94
70826;SHT31;58446;41.490;22.098;2023-08-21T07:41:07;33.08;41.49
70826;SHT31;58446;41.490;22.098;2023-08-21T07:43:39;33.36;41.46
70826;SHT31;58446;41.490;22.098;2023-08-21T07:46:07;33.39;39.94
70826;SHT31;58446;41.490;22.098;2023-08-21T07:48:35;33.50;40.34
70826;SHT31;58446;41.490;22.098;2023-08-21T07:51:01;33.59;39.55
70826;SHT31;58446;41.490;22.098;2023-08-21T07:53:26;33.52;41.16
70826;SHT31;58446;41.490;22.098;2023-08-21T07:55:52;33.74;39.53
70826;SHT31;58446;41.490;22.098;2023-08-21T07:58:19;33.84;38.30
70826;SHT31;58446;41.490;22.098;2023-08-21T08:00:45;33.73;39.12
70826;SHT31;58446;41.490;22.098;2023-08-21T08:03:10;33.80;40.71
70826;SHT31;58446;41.490;22.098;2023-08-21T08:05:38;33.90;38.65
70826;SHT31;58446;41.490;22.098;2023-08-21T08:08:04;33.98;40.00
70826;SHT31;58446;41.490;22.098;2023-08-21T08:10:30;34.07;39.75
70826;SHT31;58446;41.490;22.098;2023-08-21T08:12:56;34.04;38.97
70826;SHT31;58446;41.490;22.098;2023-08-21T08:15:22;34.13;40.83
70826;SHT31;58446;41.490;22.098;2023-08-21T08:17:48;34.05;39.84
70826;SHT31;58446;41.490;22.098;2023-08-21T08:20:21;34.08;38.77
70826;SHT31;58446;41.490;22.098;2023-08-21T08:22:46;34.11;40.60
70826;SHT31;58446;41.490;22.098;2023-08-21T08:25:12;34.20;39.98
70826;SHT31;58446;41.490;22.098;2023-08-21T08:27:39;34.34;40.22
70826;SHT31;58446;41.490;22.098;2023-08-21T08:30:06;34.17;39.95
70826;SHT31;58446;41.490;22.098;2023-08-21T08:32:33;34.10;38.85
70826;SHT31;58446;41.490;22.098;2023-08-21T08:34:59;33.70;39.48
70826;SHT31;58446;41.490;22.098;2023-08-21T08:37:25;33.27;41.14
70826;SHT31;58446;41.490;22.098;2023-08-21T08:39:51;33.53;42.67
70826;SHT31;58446;41.490;22.098;2023-08-21T08:42:17;33.84;40.74
70826;SHT31;58446;41.490;22.098;2023-08-21T08:44:43;33.98;39.00
70826;SHT31;58446;41.490;22.098;2023-08-21T08:47:10;34.20;39.31
70826;SHT31;58446;41.490;22.098;2023-08-21T08:49:39;33.90;39.11
70826;SHT31;58446;41.490;22.098;2023-08-21T08:52:06;33.74;39.22
70826;SHT31;58446;41.490;22.098;2023-08-21T08:54:32;33.64;38.50
70826;SHT31;58446;41.490;22.098;2023-08-21T08:57:01;33.57;38.49
70826;SHT31;58446;41.490;22.098;2023-08-21T08:59:29;33.69;39.57
70826;SHT31;58446;41.490;22.098;2023-08-21T09:01:55;33.70;39.29
70826;SHT31;58446;41.490;22.098;2023-08-21T09:04:21;33.56;40.13
70826;SHT31;58446;41.490;22.098;2023-08-21T09:06:46;33.69;39.72
70826;SHT31;58446;41.490;22.098;2023-08-21T09:09:12;33.67;39.71
70826;SHT31;58446;41.490;22.098;2023-08-21T09:11:46;33.69;38.57
70826;SHT31;58446;41.490;22.098;2023-08-21T09:14:13;33.83;40.68
70826;SHT31;58446;41.490;22.098;2023-08-21T09:16:59;33.90;38.90
70826;SHT31;58446;41.490;22.098;2023-08-21T09:19:25;33.93;37.41
70826;SHT31;58446;41.490;22.098;2023-08-21T09:21:51;33.93;37.13
70826;SHT31;58446;41.490;22.098;2023-08-21T09:24:18;34.00;38.55
70826;SHT31;58446;41.490;22.098;2023-08-21T09:26:44;33.76;39.74
70826;SHT31;58446;41.490;22.098;2023-08-21T09:29:10;33.76;38.34
70826;SHT31;58446;41.490;22.098;2023-08-21T09:31:36;33.26;39.46
70826;SHT31;58446;41.490;22.098;2023-08-21T09:34:03;33.35;40.49
70826;SHT31;58446;41.490;22.098;2023-08-21T09:36:33;33.73;38.41
70826;SHT31;58446;41.490;22.098;2023-08-21T09:38:59;33.81;38.54
70826;SHT31;58446;41.490;22.098;2023-08-21T09:41:26;33.81;38.06
70826;SHT31;58446;41.490;22.098;2023-08-21T09:43:52;33.90;37.46
70826;SHT31;58446;41.490;22.098;2023-08-21T09:46:25;34.03;37.29
70826;SHT31;58446;41.490;22.098;2023-08-21T09:48:54;34.20;40.46
70826;SHT31;58446;41.490;22.098;2023-08-21T09:51:21;34.45;38.39
70826;SHT31;58446;41.490;22.098;2023-08-21T09:53:50;34.49;36.00
70826;SHT31;58446;41.490;22.098;2023-08-21T09:56:19;34.56;37.09
70826;SHT31;58446;41.490;22.098;2023-08-21T09:58:47;34.88;36.54
70826;SHT31;58446;41.490;22.098;2023-08-21T10:01:13;35.00;38.22
70826;SHT31;58446;41.490;22.098;2023-08-21T10:03:41;35.22;35.76
70826;SHT31;58446;41.490;22.098;2023-08-21T10:06:11;35.33;38.17
70826;SHT31;58446;41.490;22.098;2023-08-21T10:08:39;35.34;34.76
70826;SHT31;58446;41.490;22.098;2023-08-21T10:11:11;35.23;34.17
70826;SHT31;58446;41.490;22.098;2023-08-21T10:13:38;35.22;35.26
70826;SHT31;58446;41.490;22.098;2023-08-21T10:16:05;35.17;35.35
70826;SHT31;58446;41.490;22.098;2023-08-21T10:18:36;35.22;34.76
70826;SHT31;58446;41.490;22.098;2023-08-21T10:21:13;35.27;35.07
70826;SHT31;58446;41.490;22.098;2023-08-21T10:23:39;35.20;34.75
70826;SHT31;58446;41.490;22.098;2023-08-21T10:26:07;35.16;35.09
70826;SHT31;58446;41.490;22.098;2023-08-21T10:28:59;35.29;35.27
70826;SHT31;58446;41.490;22.098;2023-08-21T10:31:41;35.51;35.54
70826;SHT31;58446;41.490;22.098;2023-08-21T10:34:12;35.76;35.67
70826;SHT31;58446;41.490;22.098;2023-08-21T10:39:24;35.60;34.43
70826;SHT31;58446;41.490;22.098;2023-08-21T10:44:49;35.73;34.26
70826;SHT31;58446;41.490;22.098;2023-08-21T10:47:22;35.74;35.42
70826;SHT31;58446;41.490;22.098;2023-08-21T10:49:59;35.74;35.52
70826;SHT31;58446;41.490;22.098;2023-08-21T10:55:01;35.92;34.01
70826;SHT31;58446;41.490;22.098;2023-08-21T10:57:30;35.91;34.68
70826;SHT31;58446;41.490;22.098;2023-08-21T10:59:57;36.01;33.91
70826;SHT31;58446;41.490;22.098;2023-08-21T11:02:27;35.69;34.38
70826;SHT31;58446;41.490;22.098;2023-08-21T11:04:56;35.73;31.62
70826;SHT31;58446;41.490;22.098;2023-08-21T11:07:22;35.64;35.24
70826;SHT31;58446;41.490;22.098;2023-08-21T11:09:48;35.85;32.90
70826;SHT31;58446;41.490;22.098;2023-08-21T11:12:17;36.09;31.20
70826;SHT31;58446;41.490;22.098;2023-08-21T11:14:44;36.24;32.63
70826;SHT31;58446;41.490;22.098;2023-08-21T11:17:10;36.35;30.28
70826;SHT31;58446;41.490;22.098;2023-08-21T11:19:37;36.55;29.66
70826;SHT31;58446;41.490;22.098;2023-08-21T11:22:03;36.48;29.22
70826;SHT31;58446;41.490;22.098;2023-08-21T11:24:39;36.51;29.81
70826;SHT31;58446;41.490;22.098;2023-08-21T11:27:10;36.51;30.79
70826;SHT31;58446;41.490;22.098;2023-08-21T11:29:42;36.53;31.81
70826;SHT31;58446;41.490;22.098;2023-08-21T11:32:28;36.53;30.80
70826;SHT31;58446;41.490;22.098;2023-08-21T11:34:55;36.53;32.06
70826;SHT31;58446;41.490;22.098;2023-08-21T11:37:26;36.61;31.80
70826;SHT31;58446;41.490;22.098;2023-08-21T11:39:53;36.57;31.68
70826;SHT31;58446;41.490;22.098;2023-08-21T11:42:22;36.33;32.79
70826;SHT31;58446;41.490;22.098;2023-08-21T11:44:52;36.52;31.48
70826;SHT31;58446;41.490;22.098;2023-08-21T11:47:20;36.56;31.38
70826;SHT31;58446;41.490;22.098;2023-08-21T11:49:47;36.66;29.37
70826;SHT31;58446;41.490;22.098;2023-08-21T11:52:20;36.65;30.43
70826;SHT31;58446;41.490;22.098;2023-08-21T11:54:50;36.68;30.89
70826;SHT31;58446;41.490;22.098;2023-08-21T11:57:16;36.75;30.07
70826;SHT31;58446;41.490;22.098;2023-08-21T11:59:42;36.78;30.39
70826;SHT31;58446;41.490;22.098;2023-08-21T12:02:21;36.76;30.51
70826;SHT31;58446;41.490;22.098;2023-08-21T12:05:01;36.84;29.74
70826;SHT31;58446;41.490;22.098;2023-08-21T12:07:27;36.90;30.20
70826;SHT31;58446;41.490;22.098;2023-08-21T12:09:53;37.03;29.35
70826;SHT31;58446;41.490;22.098;2023-08-21T12:12:19;37.13;29.09
70826;SHT31;58446;41.490;22.098;2023-08-21T12:14:46;37.10;28.89
70826;SHT31;58446;41.490;22.098;2023-08-21T12:17:12;36.65;29.81
70826;SHT31;58446;41.490;22.098;2023-08-21T12:19:38;36.69;30.41
70826;SHT31;58446;41.490;22.098;2023-08-21T12:22:04;36.87;28.88
70826;SHT31;58446;41.490;22.098;2023-08-21T12:24:30;37.07;28.94
70826;SHT31;58446;41.490;22.098;2023-08-21T12:26:56;37.17;30.07
70826;SHT31;58446;41.490;22.098;2023-08-21T12:29:22;37.21;29.58
70826;SHT31;58446;41.490;22.098;2023-08-21T12:31:47;37.30;28.82
70826;SHT31;58446;41.490;22.098;2023-08-21T12:34:13;37.35;29.49
70826;SHT31;58446;41.490;22.098;2023-08-21T12:36:39;37.38;28.57
70826;SHT31;58446;41.490;22.098;2023-08-21T12:39:06;37.37;26.57
70826;SHT31;58446;41.490;22.098;2023-08-21T12:41:32;37.07;28.86
70826;SHT31;58446;41.490;22.098;2023-08-21T12:44:00;36.76;28.88
70826;SHT31;58446;41.490;22.098;2023-08-21T12:46:28;36.55;29.13
70826;SHT31;58446;41.490;22.098;2023-08-21T12:48:56;36.55;28.68
70826;SHT31;58446;41.490;22.098;2023-08-21T12:51:22;36.70;29.44
70826;SHT31;58446;41.490;22.098;2023-08-21T12:53:47;36.84;29.54
70826;SHT31;58446;41.490;22.098;2023-08-21T12:56:13;36.93;28.45
70826;SHT31;58446;41.490;22.098;2023-08-21T12:58:39;36.82;28.09
70826;SHT31;58446;41.490;22.098;2023-08-21T13:01:04;36.62;28.06
70826;SHT31;58446;41.490;22.098;2023-08-21T13:03:32;36.53;28.15
70826;SHT31;58446;41.490;22.098;2023-08-21T13:05:58;36.35;27.97
70826;SHT31;58446;41.490;22.098;2023-08-21T13:08:24;36.46;27.72
70826;SHT31;58446;41.490;22.098;2023-08-21T13:10:49;36.38;27.80
70826;SHT31;58446;41.490;22.098;2023-08-21T13:13:15;36.45;27.79
70826;SHT31;58446;41.490;22.098;2023-08-21T13:15:41;36.63;28.35
70826;SHT31;58446;41.490;22.098;2023-08-21T13:18:10;36.76;28.28
70826;SHT31;58446;41.490;22.098;2023-08-21T13:20:36;36.86;27.74
70826;SHT31;58446;41.490;22.098;2023-08-21T13:23:01;36.92;28.52
70826;SHT31;58446;41.490;22.098;2023-08-21T13:25:27;36.75;28.24
70826;SHT31;58446;41.490;22.098;2023-08-21T13:27:54;36.66;28.08
70826;SHT31;58446;41.490;22.098;2023-08-21T13:30:20;36.82;28.22
70826;SHT31;58446;41.490;22.098;2023-08-21T13:32:46;36.80;27.99
70826;SHT31;58446;41.490;22.098;2023-08-21T13:35:12;36.82;27.82
70826;SHT31;58446;41.490;22.098;2023-08-21T13:37:38;36.78;27.79
70826;SHT31;58446;41.490;22.098;2023-08-21T13:40:04;36.87;27.85
70826;SHT31;58446;41.490;22.098;2023-08-21T13:42:43;36.86;28.95
70826;SHT31;58446;41.490;22.098;2023-08-21T13:45:12;37.03;29.61
70826;SHT31;58446;41.490;22.098;2023-08-21T13:47:43;37.14;28.64
70826;SHT31;58446;41.490;22.098;2023-08-21T13:50:09;37.06;28.52
70826;SHT31;58446;41.490;22.098;2023-08-21T13:52:35;36.78;28.75
70826;SHT31;58446;41.490;22.098;2023-08-21T13:55:02;36.75;29.53
70826;SHT31;58446;41.490;22.098;2023-08-21T13:57:28;36.78;28.55
70826;SHT31;58446;41.490;22.098;2023-08-21T13:59:54;36.79;29.36
70826;SHT31;58446;41.490;22.098;2023-08-21T14:02:20;37.00;29.34
70826;SHT31;58446;41.490;22.098;2023-08-21T14:04:46;36.92;28.38
70826;SHT31;58446;41.490;22.098;2023-08-21T14:07:12;36.94;30.07
70826;SHT31;58446;41.490;22.098;2023-08-21T14:09:38;36.79;30.14
70826;SHT31;58446;41.490;22.098;2023-08-21T14:12:04;36.83;31.74
70826;SHT31;58446;41.490;22.098;2023-08-21T14:14:33;36.62;31.61
70826;SHT31;58446;41.490;22.098;2023-08-21T14:16:58;35.87;33.70
70826;SHT31;58446;41.490;22.098;2023-08-21T14:19:24;35.49;35.72
70826;SHT31;58446;41.490;22.098;2023-08-21T14:21:50;34.98;36.34
70826;SHT31;58446;41.490;22.098;2023-08-21T14:24:15;34.76;38.49
70826;SHT31;58446;41.490;22.098;2023-08-21T14:26:42;34.68;38.33
70826;SHT31;58446;41.490;22.098;2023-08-21T14:29:07;34.59;38.24
70826;SHT31;58446;41.490;22.098;2023-08-21T14:31:33;34.51;38.52
70826;SHT31;58446;41.490;22.098;2023-08-21T14:33:59;34.24;38.52
70826;SHT31;58446;41.490;22.098;2023-08-21T14:36:24;34.14;38.30
70826;SHT31;58446;41.490;22.098;2023-08-21T14:38:50;34.00;38.05
70826;SHT31;58446;41.490;22.098;2023-08-21T14:41:17;33.89;37.96
70826;SHT31;58446;41.490;22.098;2023-08-21T14:43:43;33.80;37.69
70826;SHT31;58446;41.490;22.098;2023-08-21T14:46:09;33.69;37.64
70826;SHT31;58446;41.490;22.098;2023-08-21T14:48:36;33.63;37.47
70826;SHT31;58446;41.490;22.098;2023-08-21T14:51:02;33.67;37.23
70826;SHT31;58446;41.490;22.098;2023-08-21T14:53:27;33.73;37.07
70826;SHT31;58446;41.490;22.098;2023-08-21T14:55:53;33.78;36.92
70826;SHT31;58446;41.490;22.098;2023-08-21T14:58:19;33.92;36.83
70826;SHT31;58446;41.490;22.098;2023-08-21T15:00:45;33.89;37.12
70826;SHT31;58446;41.490;22.098;2023-08-21T15:03:10;33.89;36.88
70826;SHT31;58446;41.490;22.098;2023-08-21T15:05:37;33.96;36.89
70826;SHT31;58446;41.490;22.098;2023-08-21T15:08:02;33.98;36.82
70826;SHT31;58446;41.490;22.098;2023-08-21T15:10:29;33.83;37.13
70826;SHT31;58446;41.490;22.098;2023-08-21T15:12:54;33.89;37.07
70826;SHT31;58446;41.490;22.098;2023-08-21T15:15:20;33.84;37.01
70826;SHT31;58446;41.490;22.098;2023-08-21T15:17:47;33.80;37.31
70826;SHT31;58446;41.490;22.098;2023-08-21T15:20:12;33.84;37.15
70826;SHT31;58446;41.490;22.098;2023-08-21T15:22:40;33.96;37.26